createdAt,value
2019-02-04T00:01:56.967Z,1.81
2019-02-04T00:04:27.392Z,1.82
2019-02-04T00:06:57.898Z,1.84
2019-02-04T00:09:28.106Z,1.87
2019-02-04T00:11:58.658Z,1.89
2019-02-04T00:14:28.853Z,1.83
2019-02-04T00:16:59.456Z,1.86
2019-02-04T00:19:29.846Z,1.87
2019-02-04T00:22:00.152Z,1.86
2019-02-04T00:24:30.628Z,1.87
2019-02-04T00:27:00.758Z,1.89
2019-02-04T00:29:30.938Z,1.80
2019-02-04T00:32:01.195Z,1.80
2019-02-04T00:34:31.354Z,1.78
2019-02-04T00:37:01.548Z,1.80
2019-02-04T00:39:31.690Z,1.76
2019-02-04T00:42:01.809Z,1.73
2019-02-04T00:44:32.119Z,1.75
2019-02-04T00:47:02.287Z,1.73
2019-02-04T00:49:32.422Z,1.68
2019-02-04T00:52:03.293Z,1.67
2019-02-04T00:54:33.602Z,1.68
2019-02-04T00:57:03.864Z,1.71
2019-02-04T00:59:34.132Z,1.70
2019-02-04T01:02:04.627Z,1.66
2019-02-04T01:04:35.338Z,1.63
2019-02-04T01:07:06.398Z,1.59
2019-02-04T01:09:36.580Z,1.61
2019-02-04T01:12:06.897Z,1.62
2019-02-04T01:14:37.183Z,1.61
2019-02-04T01:17:07.615Z,1.59
2019-02-04T01:19:37.736Z,1.56
2019-02-04T01:22:08.193Z,1.45
2019-02-04T01:24:38.900Z,1.45
2019-02-04T01:27:09.266Z,1.40
2019-02-04T01:29:39.381Z,1.40
2019-02-04T01:32:09.555Z,1.33
2019-02-04T01:34:39.655Z,1.31
2019-02-04T01:37:09.962Z,1.30
2019-02-04T01:39:40.228Z,1.30
2019-02-04T01:42:10.466Z,1.28
2019-02-04T01:44:41.490Z,1.24
2019-02-04T01:47:14.536Z,1.26
2019-02-04T01:49:43.708Z,1.23
2019-02-04T01:52:14.245Z,1.22
2019-02-04T01:54:44.515Z,1.15
2019-02-04T01:57:15.392Z,1.08
2019-02-04T01:59:45.687Z,1.13
2019-02-04T02:02:16.120Z,1.14
2019-02-04T02:04:46.239Z,1.12
2019-02-04T02:07:16.510Z,1.10
2019-02-04T02:09:47.373Z,1.08
2019-02-04T02:12:17.583Z,1.08
2019-02-04T02:14:47.723Z,1.03
2019-02-04T02:17:25.917Z,0.93
2019-02-04T02:19:49.971Z,0.91
2019-02-04T02:22:20.473Z,0.92
2019-02-04T02:24:50.663Z,0.93
2019-02-04T02:27:20.848Z,0.90
2019-02-04T02:29:51.163Z,0.87
2019-02-04T02:32:21.366Z,0.89
2019-02-04T02:34:51.664Z,0.89
2019-02-04T02:37:22.846Z,0.85
2019-02-04T02:39:52.982Z,0.86
2019-02-04T02:42:23.140Z,0.80
2019-02-04T02:44:53.485Z,0.72
2019-02-04T02:47:24.029Z,0.70
2019-02-04T02:49:54.831Z,0.69
2019-02-04T02:52:25.962Z,0.69
2019-02-04T02:54:56.102Z,0.69
2019-02-04T02:57:26.307Z,0.70
2019-02-04T02:59:56.554Z,0.66
2019-02-04T03:02:27.357Z,0.67
2019-02-04T03:04:57.801Z,0.64
2019-02-04T03:07:28.957Z,0.63
2019-02-04T03:09:59.130Z,0.54
2019-02-04T03:12:29.288Z,0.47
2019-02-04T03:14:59.517Z,0.43
2019-02-04T03:17:29.722Z,0.39
2019-02-04T03:19:59.981Z,0.34
2019-02-04T03:22:30.207Z,0.22
2019-02-04T03:25:00.467Z,0.13
2019-02-04T03:27:30.640Z,0.08
2019-02-04T03:30:01.375Z,-0.03
2019-02-04T03:32:31.673Z,-0.06
2019-02-04T03:35:02.149Z,-0.09
2019-02-04T03:37:32.286Z,-0.14
2019-02-04T03:40:02.590Z,-0.13
2019-02-04T03:42:32.733Z,-0.17
2019-02-04T03:45:02.915Z,-0.21
2019-02-04T03:47:33.090Z,-0.27
2019-02-04T03:50:03.387Z,-0.33
2019-02-04T03:52:33.508Z,-0.38
2019-02-04T03:55:03.724Z,-0.42
2019-02-04T03:57:33.879Z,-0.51
2019-02-04T04:00:04.845Z,-0.56
2019-02-04T04:02:35.080Z,-0.65
2019-02-04T04:05:06.114Z,-0.71
2019-02-04T04:07:36.386Z,-0.79
2019-02-04T04:10:07.528Z,-0.86
2019-02-04T04:12:37.787Z,-0.91
2019-02-04T04:15:09.636Z,-0.91
2019-02-04T04:17:40.076Z,-0.97
2019-02-04T04:20:12.442Z,-1.02
2019-02-04T04:22:42.771Z,-0.99
2019-02-04T04:25:14.639Z,-1.09
2019-02-04T04:27:44.854Z,-1.12
2019-02-04T04:30:22.750Z,-1.14
2019-02-04T04:32:53.313Z,-1.19
2019-02-04T04:35:23.574Z,-1.26
2019-02-04T04:37:53.828Z,-1.37
2019-02-04T04:40:24.564Z,-1.39
2019-02-04T04:42:55.963Z,-1.36
2019-02-04T04:45:26.751Z,-1.42
2019-02-04T04:47:57.013Z,-1.47
2019-02-04T04:50:27.329Z,-1.52
2019-02-04T04:52:57.648Z,-1.65
2019-02-04T04:55:27.909Z,-1.65
2019-02-04T04:57:58.094Z,-1.62
2019-02-04T05:00:30.457Z,-1.68
2019-02-04T05:03:01.260Z,-1.78
2019-02-04T05:05:31.709Z,-1.85
2019-02-04T05:08:01.847Z,-1.91
2019-02-04T05:10:32.277Z,-1.92
2019-02-04T05:13:02.934Z,-1.92
2019-02-04T05:15:33.268Z,-1.89
2019-02-04T05:18:03.542Z,-1.91
2019-02-04T05:20:33.777Z,-1.99
2019-02-04T05:23:03.983Z,-2.04
2019-02-04T05:25:34.097Z,-2.09
2019-02-04T05:28:04.258Z,-2.03
2019-02-04T05:30:34.574Z,-2.08
2019-02-04T05:33:04.906Z,-2.09
2019-02-04T05:35:35.030Z,-2.27
2019-02-04T05:38:05.150Z,-2.22
2019-02-04T05:40:35.344Z,-2.21
2019-02-04T05:43:05.563Z,-2.22
2019-02-04T05:45:35.775Z,-2.30
2019-02-04T05:48:06.065Z,-2.32
2019-02-04T05:50:36.205Z,-2.36
2019-02-04T05:53:06.891Z,-2.37
2019-02-04T05:55:37.450Z,-2.38
2019-02-04T05:58:07.714Z,-2.39
2019-02-04T06:00:44.468Z,-2.50
2019-02-04T06:03:14.758Z,-2.59
2019-02-04T06:05:45.344Z,-2.57
2019-02-04T06:08:15.788Z,-2.53
2019-02-04T06:10:47.201Z,-2.59
2019-02-04T06:13:17.377Z,-2.65
2019-02-04T06:15:47.706Z,-2.70
2019-02-04T06:18:18.342Z,-2.76
2019-02-04T06:20:48.733Z,-2.75
2019-02-04T06:23:19.173Z,-2.79
2019-02-04T06:25:49.518Z,-2.78
2019-02-04T06:28:20.056Z,-2.77
2019-02-04T06:30:50.294Z,-2.77
2019-02-04T06:33:20.669Z,-2.79
2019-02-04T06:35:51.179Z,-2.84
2019-02-04T06:38:21.708Z,-2.88
2019-02-04T06:40:51.933Z,-2.92
2019-02-04T06:43:22.034Z,-2.94
2019-02-04T06:45:52.975Z,-2.96
2019-02-04T06:48:23.477Z,-2.92
2019-02-04T06:50:53.653Z,-2.91
2019-02-04T06:53:23.817Z,-2.93
2019-02-04T06:55:54.057Z,-2.94
2019-02-04T06:58:24.932Z,-2.95
2019-02-04T07:00:55.470Z,-2.98
2019-02-04T07:03:25.649Z,-2.99
2019-02-04T07:05:55.854Z,-2.95
2019-02-04T07:08:26.039Z,-2.95
2019-02-04T07:10:56.237Z,-2.93
2019-02-04T07:13:26.377Z,-3.13
2019-02-04T07:15:56.589Z,-3.11
2019-02-04T07:18:26.747Z,-2.96
2019-02-04T07:20:57.018Z,-2.89
2019-02-04T07:23:27.313Z,-2.85
2019-02-04T07:25:58.999Z,-2.86
2019-02-04T07:28:29.253Z,-2.82
2019-02-04T07:30:59.870Z,-2.91
2019-02-04T07:33:30.499Z,-2.89
2019-02-04T07:36:03.328Z,-2.82
2019-02-04T07:38:33.070Z,-2.68
2019-02-04T07:41:03.368Z,-2.54
2019-02-04T07:43:33.604Z,-2.34
2019-02-04T07:46:03.964Z,-2.20
2019-02-04T07:48:34.528Z,-2.20
2019-02-04T07:51:05.056Z,-2.02
2019-02-04T07:53:36.355Z,-1.88
2019-02-04T07:56:06.593Z,-1.70
2019-02-04T07:58:37.305Z,-1.51
2019-02-04T08:01:08.624Z,-1.38
2019-02-04T08:03:38.910Z,-1.34
2019-02-04T08:06:09.325Z,-1.49
2019-02-04T08:08:40.479Z,-1.41
2019-02-04T08:11:10.722Z,-1.38
2019-02-04T08:13:40.983Z,-1.38
2019-02-04T08:16:11.137Z,-1.45
2019-02-04T08:18:41.359Z,-1.39
2019-02-04T08:21:11.608Z,-1.26
2019-02-04T08:23:41.868Z,-0.99
2019-02-04T08:26:12.595Z,-0.59
2019-02-04T08:28:42.888Z,0.06
2019-02-04T08:31:13.143Z,0.99
2019-02-04T08:33:44.037Z,1.95
2019-02-04T08:36:14.571Z,3.33
2019-02-04T08:38:44.826Z,4.86
2019-02-04T08:41:15.205Z,6.49
2019-02-04T08:43:45.765Z,6.47
2019-02-04T08:46:16.914Z,7.56
2019-02-04T08:48:47.563Z,8.61
2019-02-04T08:51:17.798Z,9.56
2019-02-04T08:53:48.464Z,9.77
2019-02-04T08:56:18.824Z,11.07
2019-02-04T08:58:49.342Z,11.48
2019-02-04T09:01:19.686Z,11.51
2019-02-04T09:03:50.339Z,12.87
2019-02-04T09:06:20.728Z,13.82
2019-02-04T09:08:51.220Z,14.70
2019-02-04T09:11:21.833Z,15.28
2019-02-04T09:13:52.978Z,15.49
2019-02-04T09:16:24.269Z,16.84
2019-02-04T09:18:55.061Z,16.72
2019-02-04T09:21:26.279Z,17.66
2019-02-04T09:23:57.203Z,17.91
2019-02-04T09:26:27.808Z,18.11
2019-02-04T09:28:58.610Z,18.55
2019-02-04T09:31:28.818Z,18.86
2019-02-04T09:33:59.122Z,19.13
2019-02-04T09:36:29.994Z,20.03
2019-02-04T09:39:00.412Z,20.15
2019-02-04T09:41:31.218Z,20.22
2019-02-04T09:44:02.108Z,20.70
2019-02-04T09:46:32.580Z,21.33
2019-02-04T09:49:02.927Z,21.17
2019-02-04T09:51:33.224Z,21.97
2019-02-04T09:54:03.870Z,21.98
2019-02-04T09:56:34.275Z,21.00
2019-02-04T09:59:04.785Z,19.56
2019-02-04T10:01:35.429Z,17.75
2019-02-04T10:04:05.963Z,17.34
2019-02-04T10:06:36.254Z,16.22
2019-02-04T10:09:09.317Z,17.16
2019-02-04T10:11:39.620Z,17.37
2019-02-04T10:14:09.930Z,16.78
2019-02-04T10:16:40.268Z,17.36
2019-02-04T10:19:11.077Z,17.56
2019-02-04T10:21:41.448Z,17.44
2019-02-04T10:24:11.739Z,16.69
2019-02-04T10:26:42.346Z,14.94
2019-02-04T10:29:12.886Z,15.01
2019-02-04T10:31:43.325Z,15.92
2019-02-04T10:34:14.165Z,16.27
2019-02-04T10:36:44.823Z,16.04
2019-02-04T10:39:15.534Z,18.06
2019-02-04T10:41:45.910Z,19.10
2019-02-04T10:44:16.461Z,20.25
2019-02-04T10:46:47.105Z,20.85
2019-02-04T10:49:17.681Z,20.95
2019-02-04T10:51:48.220Z,21.39
2019-02-04T10:54:18.899Z,23.01
2019-02-04T10:56:49.368Z,22.48
2019-02-04T10:59:20.368Z,22.82
2019-02-04T11:01:50.635Z,22.44
2019-02-04T11:04:21.831Z,23.75
2019-02-04T11:06:52.803Z,23.75
2019-02-04T11:09:23.224Z,22.41
2019-02-04T11:11:54.091Z,20.59
2019-02-04T11:14:24.447Z,22.03
2019-02-04T11:16:55.130Z,23.88
2019-02-04T11:19:25.715Z,24.04
2019-02-04T11:21:55.999Z,21.59
2019-02-04T11:24:26.574Z,21.49
2019-02-04T11:26:57.300Z,21.50
2019-02-04T11:29:28.138Z,23.03
2019-02-04T11:31:58.978Z,24.22
2019-02-04T11:34:29.690Z,23.19
2019-02-04T11:37:00.122Z,22.01
2019-02-04T11:39:30.515Z,22.13
2019-02-04T11:42:01.239Z,24.08
2019-02-04T11:44:31.553Z,23.61
2019-02-04T11:47:02.411Z,21.59
2019-02-04T11:49:32.799Z,20.33
2019-02-04T11:52:03.387Z,21.84
2019-02-04T11:54:34.173Z,22.95
2019-02-04T11:57:04.654Z,23.67
2019-02-04T11:59:36.678Z,24.35
2019-02-04T12:02:08.122Z,25.86
2019-02-04T12:04:38.904Z,25.16
2019-02-04T12:07:09.226Z,25.34
2019-02-04T12:09:40.389Z,22.78
2019-02-04T12:12:10.887Z,24.47
2019-02-04T12:14:41.776Z,21.47
2019-02-04T12:17:12.290Z,22.79
2019-02-04T12:19:42.928Z,20.98
2019-02-04T12:22:13.538Z,20.55
2019-02-04T12:24:44.162Z,20.12
2019-02-04T12:27:14.805Z,20.10
2019-02-04T12:29:44.997Z,20.09
2019-02-04T12:32:15.604Z,19.71
2019-02-04T12:34:46.104Z,18.26
2019-02-04T12:37:18.256Z,19.88
2019-02-04T12:39:48.558Z,19.36
2019-02-04T12:42:18.986Z,18.55
2019-02-04T12:44:49.540Z,16.07
2019-02-04T12:47:20.031Z,16.05
2019-02-04T12:49:50.629Z,17.01
2019-02-04T12:52:21.421Z,17.51
2019-02-04T12:54:51.921Z,16.30
2019-02-04T12:57:22.613Z,17.78
2019-02-04T12:59:53.022Z,16.20
2019-02-04T13:02:24.195Z,15.94
2019-02-04T13:04:54.628Z,17.90
2019-02-04T13:07:25.152Z,17.81
2019-02-04T13:09:56.109Z,17.10
2019-02-04T13:12:26.760Z,17.14
2019-02-04T13:14:58.062Z,16.80
2019-02-04T13:17:28.476Z,17.30
2019-02-04T13:19:58.980Z,18.98
2019-02-04T13:22:29.665Z,16.99
2019-02-04T13:25:00.194Z,17.55
2019-02-04T13:27:30.985Z,16.99
2019-02-04T13:30:01.383Z,14.70
2019-02-04T13:32:32.596Z,14.55
2019-02-04T13:35:02.947Z,14.79
2019-02-04T13:37:33.581Z,13.25
2019-02-04T13:40:04.677Z,12.06
2019-02-04T13:42:35.096Z,12.14
2019-02-04T13:45:08.543Z,12.24
2019-02-04T13:47:39.166Z,11.43
2019-02-04T13:50:11.526Z,11.90
2019-02-04T13:52:42.649Z,13.11
2019-02-04T13:55:16.140Z,11.11
2019-02-04T13:57:46.776Z,10.66
2019-02-04T14:00:19.247Z,10.25
2019-02-04T14:02:58.776Z,10.37
2019-02-04T14:05:24.861Z,10.57
2019-02-04T14:07:55.611Z,10.30
2019-02-04T14:10:28.186Z,11.08
2019-02-04T14:12:58.959Z,12.36
2019-02-04T14:15:31.696Z,11.62
2019-02-04T14:18:02.296Z,13.70
2019-02-04T14:20:32.662Z,13.65
2019-02-04T14:23:03.312Z,15.00
2019-02-04T14:25:34.048Z,14.36
2019-02-04T14:28:05.279Z,14.91
2019-02-04T14:30:38.751Z,13.76
2019-02-04T14:33:11.616Z,12.96
2019-02-04T14:35:42.161Z,12.33
2019-02-04T14:38:12.907Z,11.68
2019-02-04T14:40:43.887Z,11.32
2019-02-04T14:43:24.459Z,11.04
2019-02-04T14:46:08.228Z,11.47
2019-02-04T14:49:18.392Z,11.65
2019-02-04T14:52:21.395Z,10.86
2019-02-04T14:55:27.267Z,11.35
2019-02-04T14:58:43.618Z,11.62
2019-02-04T15:02:09.703Z,10.76
2019-02-04T15:05:04.938Z,10.79
2019-02-04T15:08:02.355Z,10.21
2019-02-04T15:11:32.469Z,10.26
2019-02-04T15:14:33.417Z,10.06
2019-02-04T15:17:18.360Z,10.06
2019-02-04T15:20:12.800Z,9.40
2019-02-04T15:23:17.151Z,9.30
2019-02-04T15:26:44.212Z,8.68
2019-02-04T15:29:51.329Z,7.31
2019-02-04T15:33:14.965Z,7.46
2019-02-04T15:36:16.436Z,7.27
2019-02-04T15:39:14.955Z,6.80
2019-02-04T15:42:05.616Z,6.37
2019-02-04T15:45:05.877Z,6.49
2019-02-04T15:47:53.237Z,6.55
2019-02-04T15:50:31.706Z,6.28
2019-02-04T15:53:02.267Z,6.14
2019-02-04T15:55:33.764Z,5.83
2019-02-04T15:58:04.374Z,5.43
2019-02-04T16:00:34.738Z,5.14
2019-02-04T16:03:05.567Z,5.04
2019-02-04T16:05:35.962Z,5.17
2019-02-04T16:08:06.352Z,5.04
2019-02-04T16:10:36.526Z,4.93
2019-02-04T16:13:07.000Z,4.82
2019-02-04T16:15:37.976Z,4.69
2019-02-04T16:18:08.787Z,4.39
2019-02-04T16:20:39.157Z,4.05
2019-02-04T16:23:09.888Z,4.14
2019-02-04T16:25:41.234Z,4.10
2019-02-04T16:28:11.902Z,4.05
2019-02-04T16:30:42.232Z,3.85
2019-02-04T16:33:12.905Z,3.75
2019-02-04T16:35:43.335Z,3.69
2019-02-04T16:38:13.786Z,3.53
2019-02-04T16:40:43.921Z,3.38
2019-02-04T16:43:14.834Z,3.20
2019-02-04T16:45:45.260Z,3.09
2019-02-04T16:48:15.987Z,3.02
2019-02-04T16:50:57.404Z,2.93
2019-02-04T16:53:18.657Z,2.88
2019-02-04T16:55:49.284Z,2.81
2019-02-04T16:58:19.872Z,2.72
2019-02-04T17:00:51.289Z,2.58
2019-02-04T17:03:22.371Z,2.54
2019-02-04T17:05:53.672Z,2.33
2019-02-04T17:08:24.481Z,2.15
2019-02-04T17:10:54.893Z,2.02
2019-02-04T17:13:25.194Z,1.90
2019-02-04T17:15:55.990Z,1.59
2019-02-04T17:18:26.317Z,0.91
2019-02-04T17:20:56.530Z,0.93
2019-02-04T17:23:26.983Z,0.65
2019-02-04T17:25:59.586Z,0.71
2019-02-04T17:28:29.873Z,0.98
2019-02-04T17:31:00.392Z,1.11
2019-02-04T17:33:30.448Z,1.09
2019-02-04T17:36:00.849Z,1.09
2019-02-04T17:38:32.128Z,1.05
2019-02-04T17:41:02.734Z,0.95
2019-02-04T17:43:33.231Z,0.91
2019-02-04T17:46:03.517Z,0.90
2019-02-04T17:48:33.762Z,0.75
2019-02-04T17:51:04.691Z,0.74
2019-02-04T17:53:35.038Z,0.68
2019-02-04T17:56:07.812Z,0.62
2019-02-04T17:58:38.203Z,0.58
2019-02-04T18:01:08.777Z,0.44
2019-02-04T18:03:39.510Z,0.40
2019-02-04T18:06:10.115Z,0.36
2019-02-04T18:08:40.874Z,0.25
2019-02-04T18:11:11.490Z,0.18
2019-02-04T18:13:42.019Z,0.10
2019-02-04T18:16:12.577Z,0.07
2019-02-04T18:18:43.008Z,0.05
2019-02-04T18:21:13.318Z,-0.03
2019-02-04T18:23:46.036Z,-0.14
2019-02-04T18:26:16.452Z,-0.23
2019-02-04T18:28:47.874Z,-0.25
2019-02-04T18:31:18.537Z,-0.29
2019-02-04T18:33:49.006Z,-0.36
2019-02-04T18:36:19.590Z,-0.41
2019-02-04T18:38:50.202Z,-0.39
2019-02-04T18:41:21.086Z,-0.41
2019-02-04T18:43:51.665Z,-0.41
2019-02-04T18:46:22.437Z,-0.46
2019-02-04T18:48:53.009Z,-0.52
2019-02-04T18:51:23.378Z,-0.48
2019-02-04T18:53:57.863Z,-0.69
2019-02-04T18:56:26.302Z,-0.80
2019-02-04T18:58:57.173Z,-0.68
2019-02-04T19:01:27.727Z,-0.67
2019-02-04T19:03:58.126Z,-0.66
2019-02-04T19:06:28.803Z,-0.65
2019-02-04T19:08:59.327Z,-0.66
2019-02-04T19:11:30.341Z,-0.70
2019-02-04T19:14:00.935Z,-0.70
2019-02-04T19:16:31.435Z,-0.70
2019-02-04T19:19:02.031Z,-0.64
2019-02-04T19:21:32.482Z,-0.66
2019-02-04T19:24:09.685Z,-0.65
2019-02-04T19:26:35.210Z,-0.69
2019-02-04T19:29:08.417Z,-0.74
2019-02-04T19:31:38.979Z,-0.79
2019-02-04T19:34:09.798Z,-0.83
2019-02-04T19:36:40.396Z,-0.81
2019-02-04T19:39:11.799Z,-0.85
2019-02-04T19:41:42.535Z,-0.85
2019-02-04T19:44:13.134Z,-0.84
2019-02-04T19:46:44.269Z,-0.86
2019-02-04T19:49:15.293Z,-0.85
2019-02-04T19:51:47.793Z,-0.82
2019-02-04T19:54:21.562Z,-0.84
2019-02-04T19:56:50.911Z,-0.89
2019-02-04T19:59:21.925Z,-0.90
2019-02-04T20:01:52.292Z,-0.91
2019-02-04T20:04:22.899Z,-0.86
2019-02-04T20:06:53.498Z,-0.85
2019-02-04T20:09:23.797Z,-0.88
2019-02-04T20:11:54.327Z,-0.91
2019-02-04T20:14:24.990Z,-0.96
2019-02-04T20:16:57.353Z,-0.94
2019-02-04T20:19:27.917Z,-0.95
2019-02-04T20:21:58.493Z,-0.98
2019-02-04T20:24:33.262Z,-1.03
2019-02-04T20:27:01.781Z,-1.33
2019-02-04T20:29:33.182Z,-1.47
2019-02-04T20:32:03.367Z,-1.44
2019-02-04T20:34:33.913Z,-1.39
2019-02-04T20:37:04.591Z,-1.28
2019-02-04T20:39:35.717Z,-1.29
2019-02-04T20:42:06.848Z,-1.32
2019-02-04T20:44:37.687Z,-1.42
2019-02-04T20:47:08.290Z,-1.43
2019-02-04T20:49:39.091Z,-1.42
2019-02-04T20:52:09.626Z,-1.46
2019-02-04T20:54:45.068Z,-1.75
2019-02-04T20:57:12.293Z,-1.78
2019-02-04T20:59:44.077Z,-1.68
2019-02-04T21:02:14.594Z,-1.66
2019-02-04T21:04:45.206Z,-1.68
2019-02-04T21:07:16.086Z,-1.69
2019-02-04T21:09:46.822Z,-1.72
2019-02-04T21:12:17.367Z,-1.69
2019-02-04T21:14:48.167Z,-1.63
2019-02-04T21:17:18.648Z,-1.61
2019-02-04T21:19:49.733Z,-1.61
2019-02-04T21:22:20.006Z,-1.61
2019-02-04T21:24:56.525Z,-1.60
2019-02-04T21:27:22.332Z,-1.63
2019-02-04T21:29:54.054Z,-1.64
2019-02-04T21:32:25.143Z,-1.78
2019-02-04T21:34:55.719Z,-1.77
2019-02-04T21:37:26.081Z,-2.15
2019-02-04T21:39:56.744Z,-2.18
2019-02-04T21:42:27.118Z,-2.14
2019-02-04T21:44:58.776Z,-2.10
2019-02-04T21:47:29.084Z,-1.98
2019-02-04T21:50:00.186Z,-1.91
2019-02-04T21:52:30.924Z,-1.95
2019-02-04T21:55:08.451Z,-1.89
2019-02-04T21:57:34.499Z,-1.87
2019-02-04T22:00:07.168Z,-1.86
2019-02-04T22:02:37.479Z,-1.80
2019-02-04T22:05:10.543Z,-1.80
2019-02-04T22:07:40.954Z,-1.75
2019-02-04T22:10:18.107Z,-1.70
2019-02-04T22:12:48.586Z,-1.65
2019-02-04T22:15:19.253Z,-1.65
2019-02-04T22:17:49.698Z,-1.68
2019-02-04T22:20:20.644Z,-1.84
2019-02-04T22:22:50.992Z,-1.93
2019-02-04T22:25:22.585Z,-1.95
2019-02-04T22:27:53.103Z,-1.75
2019-02-04T22:30:27.920Z,-1.65
2019-02-04T22:32:58.324Z,-1.65
2019-02-04T22:35:28.695Z,-1.63
2019-02-04T22:37:59.692Z,-1.63
2019-02-04T22:40:30.430Z,-1.59
2019-02-04T22:43:01.139Z,-1.54
2019-02-04T22:45:33.192Z,-1.66
2019-02-04T22:48:03.594Z,-1.60
2019-02-04T22:50:34.143Z,-1.57
2019-02-04T22:53:04.725Z,-1.52
2019-02-04T22:55:35.046Z,-1.51
2019-02-04T22:58:06.284Z,-1.53
2019-02-04T23:01:05.186Z,-1.53
2019-02-04T23:03:35.519Z,-1.57
2019-02-04T23:06:06.101Z,-1.59
2019-02-04T23:08:36.290Z,-1.59
2019-02-04T23:11:06.850Z,-1.54
2019-02-04T23:13:37.585Z,-1.51
2019-02-04T23:16:07.999Z,-1.47
2019-02-04T23:18:38.114Z,-1.47
2019-02-04T23:21:08.566Z,-1.55
2019-02-04T23:23:38.730Z,-1.57
2019-02-04T23:26:09.016Z,-1.58
2019-02-04T23:28:39.168Z,-1.57
2019-02-04T23:31:09.330Z,-1.58
2019-02-04T23:33:39.648Z,-1.61
2019-02-04T23:36:09.837Z,-1.62
2019-02-04T23:38:39.956Z,-1.61
2019-02-04T23:41:10.771Z,-1.56
2019-02-04T23:43:41.103Z,-1.57
2019-02-04T23:46:11.553Z,-1.62
2019-02-04T23:48:42.261Z,-1.66
2019-02-04T23:51:12.546Z,-1.71
2019-02-04T23:53:43.109Z,-1.73
2019-02-04T23:56:13.397Z,-1.74
2019-02-04T23:58:43.553Z,-1.74
